Time;durP1;ratioP1;P1;durP2;ratioP2;P2;SDS_P1;SDS_P2;PMS_P1;PMS_P2;Temp;Humidity;BMP_temperature;BMP_pressure;BME280_temperature;BME280_humidity;BME280_pressure;Samples;Min_cycle;Max_cycle;Signal;HPM_P1;HPM_P2
2023/06/22 00:01:16;;;;;;;4.05;3.20;;;;;;;27.84;35.54;96899.13;5034512;28;20423;-26
2023/06/22 00:03:42;;;;;;;5.50;3.38;;;;;;;27.82;35.19;96890.53;5050509;28;20024;-26
2023/06/22 00:06:07;;;;;;;4.60;3.08;;;;;;;27.99;35.69;96893.81;5033941;28;20041;-26
2023/06/22 00:08:32;;;;;;;3.83;2.97;;;;;;;27.99;36.30;96907.75;5034135;28;20020;-27
2023/06/22 00:10:58;;;;;;;4.47;3.13;;;;;;;28.07;36.11;96900.25;5034254;28;20024;-26
2023/06/22 00:13:23;;;;;;;4.10;3.35;;;;;;;27.97;36.82;96898.41;5033927;28;20026;-26
2023/06/22 00:15:49;;;;;;;4.05;3.00;;;;;;;28.01;37.01;96898.84;5033874;28;20047;-26
2023/06/22 00:18:15;;;;;;;5.57;3.10;;;;;;;27.85;37.04;96903.41;5033598;28;20029;-26
2023/06/22 00:20:42;;;;;;;4.30;3.33;;;;;;;27.84;36.89;96897.09;5033375;28;20025;-25
2023/06/22 00:23:08;;;;;;;5.00;3.20;;;;;;;27.73;36.38;96896.50;5033762;28;20021;-26
2023/06/22 00:25:39;;;;;;;6.30;3.03;;;;;;;27.65;36.34;96887.28;5034107;28;20036;-26
2023/06/22 00:28:05;;;;;;;5.15;3.70;;;;;;;27.64;36.28;96888.56;5034107;28;20017;-26
2023/06/22 00:30:32;;;;;;;4.63;3.17;;;;;;;27.73;36.30;96888.91;5033756;28;20028;-26
2023/06/22 00:32:58;;;;;;;4.07;3.35;;;;;;;27.79;36.40;96888.84;5033820;28;20490;-26
2023/06/22 00:35:29;;;;;;;6.60;3.47;;;;;;;27.50;36.83;96885.69;5033507;28;20036;-26
2023/06/22 00:38:03;;;;;;;5.57;3.45;;;;;;;27.52;36.86;96893.50;5033557;28;20052;-26
2023/06/22 00:40:29;;;;;;;7.10;3.63;;;;;;;27.63;36.43;96895.41;5039936;28;20053;-26
2023/06/22 00:42:55;;;;;;;6.93;3.42;;;;;;;27.65;36.64;96901.22;5033425;28;20025;-26
2023/06/22 00:45:23;;;;;;;4.22;3.38;;;;;;;27.68;36.48;96914.09;5033896;28;20122;-26
2023/06/22 00:47:52;;;;;;;6.95;3.90;;;;;;;27.66;36.78;96903.47;5033222;28;20034;-26
2023/06/22 00:50:21;;;;;;;6.28;3.40;;;;;;;27.67;37.16;96898.66;5033595;28;20019;-26
2023/06/22 00:52:56;;;;;;;4.50;3.50;;;;;;;27.66;37.16;96892.31;5040641;28;20168;-26
2023/06/22 00:55:23;;;;;;;5.00;3.20;;;;;;;27.73;36.87;96891.69;5033618;28;20396;-26
2023/06/22 00:57:49;;;;;;;4.78;3.08;;;;;;;27.74;36.64;96889.66;5033684;28;20108;-26
2023/06/22 01:00:20;;;;;;;5.75;3.60;;;;;;;27.67;36.94;96885.47;5033411;28;20025;-27
2023/06/22 01:02:46;;;;;;;5.68;3.42;;;;;;;27.48;36.82;96890.28;5033537;28;20036;-26
2023/06/22 01:05:15;;;;;;;6.00;3.40;;;;;;;27.76;36.48;96884.31;5033365;28;20483;-27
2023/06/22 01:07:46;;;;;;;5.25;3.20;;;;;;;27.61;36.77;96881.25;5044926;28;20497;-26
2023/06/22 01:10:24;;;;;;;4.43;3.42;;;;;;;27.70;36.74;96875.28;5033171;28;20028;-26
2023/06/22 01:13:26;;;;;;;4.75;3.53;;;;;;;27.51;37.07;96881.63;5033241;28;20159;-26
2023/06/22 01:16:07;;;;;;;4.97;3.63;;;;;;;27.39;37.00;96880.28;5020520;28;20100;-26
2023/06/22 01:18:36;;;;;;;5.63;3.42;;;;;;;27.49;36.76;96878.59;5038815;28;20044;-27
2023/06/22 01:21:08;;;;;;;5.97;3.90;;;;;;;27.26;36.60;96874.63;5034256;28;20021;-26
2023/06/22 01:23:42;;;;;;;4.07;3.58;;;;;;;27.38;36.03;96878.03;5033210;28;20056;-26
2023/06/22 01:26:18;;;;;;;4.65;3.30;;;;;;;27.24;36.23;96874.41;5033086;28;20394;-26
2023/06/22 01:28:48;;;;;;;3.78;3.33;;;;;;;27.43;36.32;96879.97;5033122;28;20029;-26
2023/06/22 01:31:17;;;;;;;6.55;3.47;;;;;;;27.49;36.36;96878.59;5033539;28;20048;-26
2023/06/22 01:33:46;;;;;;;3.55;3.00;;;;;;;27.28;36.40;96885.25;5036841;28;20055;-26
2023/06/22 01:36:13;;;;;;;4.43;3.20;;;;;;;27.44;36.50;96878.69;5037006;28;20084;-26
2023/06/22 01:38:39;;;;;;;4.07;3.42;;;;;;;27.43;36.46;96877.94;5037100;28;20021;-26
2023/06/22 01:41:05;;;;;;;4.85;3.63;;;;;;;27.40;36.33;96881.03;5036492;28;20080;-27
2023/06/22 01:43:32;;;;;;;4.90;3.75;;;;;;;27.46;36.29;96878.91;5036762;28;20021;-26
2023/06/22 01:46:00;;;;;;;4.85;3.20;;;;;;;27.27;36.42;96872.59;5036460;28;20025;-26
2023/06/22 01:48:26;;;;;;;5.70;3.60;;;;;;;27.32;36.31;96878.13;5036468;28;20494;-26
2023/06/22 01:50:53;;;;;;;4.63;3.10;;;;;;;27.35;35.93;96870.72;5036994;28;20151;-26
2023/06/22 01:53:23;;;;;;;5.18;3.38;;;;;;;27.27;36.07;96867.03;5036391;28;20033;-26
2023/06/22 01:55:49;;;;;;;4.47;3.28;;;;;;;27.22;36.03;96865.81;5043812;28;20387;-26
2023/06/22 01:58:15;;;;;;;4.78;3.40;;;;;;;27.33;36.00;96860.09;5036117;28;20022;-26
2023/06/22 02:00:48;;;;;;;4.55;3.10;;;;;;;27.24;36.11;96856.94;5036368;28;20036;-26
2023/06/22 02:03:19;;;;;;;4.82;2.92;;;;;;;27.08;36.38;96850.31;5040463;28;20018;-26
2023/06/22 02:05:52;;;;;;;7.97;3.50;;;;;;;27.17;36.35;96847.19;5036560;28;20022;-26
2023/06/22 02:08:23;;;;;;;4.55;3.30;;;;;;;27.25;36.62;96841.75;5037024;28;20013;-26
2023/06/22 02:10:51;;;;;;;3.65;3.15;;;;;;;27.33;35.67;96851.75;5043457;28;20025;-26
2023/06/22 02:13:18;;;;;;;4.82;3.05;;;;;;;27.31;35.53;96845.97;5034708;28;20444;-26
2023/06/22 02:15:43;;;;;;;5.70;3.33;;;;;;;27.08;36.08;96844.75;5036174;28;20490;-26
2023/06/22 02:18:09;;;;;;;3.97;3.17;;;;;;;27.14;36.18;96849.00;5043380;28;20025;-26
2023/06/22 02:20:39;;;;;;;5.05;3.67;;;;;;;27.20;36.45;96851.69;5036112;28;20027;-27
2023/06/22 02:23:05;;;;;;;5.00;3.45;;;;;;;27.35;36.86;96846.41;5036032;28;20022;-26
2023/06/22 02:25:31;;;;;;;7.28;3.50;;;;;;;27.38;36.84;96839.78;5036063;28;20025;-26
2023/06/22 02:27:57;;;;;;;3.88;3.47;;;;;;;27.46;36.14;96840.66;5043607;28;20017;-26
2023/06/22 02:30:22;;;;;;;4.40;3.42;;;;;;;27.35;36.41;96840.06;5036111;28;20211;-26
2023/06/22 02:32:48;;;;;;;4.13;3.20;;;;;;;27.42;36.24;96843.03;5035764;28;20025;-26
2023/06/22 02:35:13;;;;;;;6.47;3.45;;;;;;;27.53;36.02;96844.88;5035993;28;20021;-26
2023/06/22 02:37:41;;;;;;;3.85;3.28;;;;;;;27.27;36.56;96842.72;5037979;28;20021;-26
2023/06/22 02:40:08;;;;;;;3.67;3.33;;;;;;;27.52;36.06;96848.94;5038527;28;20052;-26
2023/06/22 02:42:34;;;;;;;5.53;3.20;;;;;;;27.44;36.07;96850.84;5036064;28;20026;-27
2023/06/22 02:45:00;;;;;;;5.18;3.53;;;;;;;27.47;36.16;96844.94;5035126;28;20029;-26
2023/06/22 02:47:26;;;;;;;4.53;3.40;;;;;;;27.57;36.60;96844.59;5035550;28;20495;-26
2023/06/22 02:49:51;;;;;;;3.92;3.20;;;;;;;27.27;36.30;96841.97;5035585;28;20376;-26
2023/06/22 02:52:17;;;;;;;10.63;3.33;;;;;;;27.28;36.80;96841.44;5035336;28;20028;-26
2023/06/22 02:54:45;;;;;;;4.80;3.42;;;;;;;27.36;36.72;96850.69;5035462;28;20017;-26
2023/06/22 02:57:13;;;;;;;4.50;3.40;;;;;;;27.26;37.42;96843.25;5035590;28;20076;-26
2023/06/22 02:59:43;;;;;;;4.25;2.90;;;;;;;27.29;37.16;96845.00;5035671;28;20445;-26
2023/06/22 03:02:09;;;;;;;6.28;3.65;;;;;;;27.31;37.39;96845.22;5035255;28;20057;-26
2023/06/22 03:04:35;;;;;;;4.90;3.25;;;;;;;27.26;37.58;96854.41;5035706;28;20454;-26
2023/06/22 03:07:01;;;;;;;5.93;3.65;;;;;;;27.05;38.26;96848.63;5035021;28;20098;-26
2023/06/22 03:09:28;;;;;;;4.90;3.53;;;;;;;27.38;37.43;96850.91;5035516;28;20114;-27
2023/06/22 03:11:56;;;;;;;4.80;3.00;;;;;;;27.37;37.24;96841.06;5035567;28;20052;-26
2023/06/22 03:14:22;;;;;;;6.03;3.28;;;;;;;27.31;36.97;96843.19;5035046;28;20569;-26
2023/06/22 03:16:47;;;;;;;5.43;3.35;;;;;;;27.36;37.52;96842.34;5042378;28;20025;-26
2023/06/22 03:19:13;;;;;;;5.97;3.55;;;;;;;27.20;37.48;96846.09;5034972;28;20020;-26
2023/06/22 03:21:39;;;;;;;4.40;3.42;;;;;;;27.31;37.17;96857.09;5034708;28;20021;-27
2023/06/22 03:24:05;;;;;;;5.78;3.40;;;;;;;27.27;37.26;96850.34;5034858;28;20545;-26
2023/06/22 03:26:31;;;;;;;11.40;3.67;;;;;;;27.36;37.45;96855.50;5034848;28;20025;-26
2023/06/22 03:28:56;;;;;;;5.20;3.03;;;;;;;27.34;36.89;96850.47;5034860;28;20048;-27
2023/06/22 03:31:23;;;;;;;4.47;3.05;;;;;;;27.22;36.82;96854.69;5037344;28;20044;-26
2023/06/22 03:33:52;;;;;;;5.90;3.33;;;;;;;27.25;36.97;96853.63;5039313;28;20071;-26
2023/06/22 03:36:22;;;;;;;4.65;3.38;;;;;;;27.23;36.63;96856.19;5034673;28;20064;-26
2023/06/22 03:38:48;;;;;;;5.07;3.58;;;;;;;27.06;36.00;96858.47;5034612;28;20024;-26
2023/06/22 03:41:14;;;;;;;5.32;3.30;;;;;;;27.37;36.75;96854.97;5034730;28;20049;-26
2023/06/22 03:43:39;;;;;;;5.78;3.35;;;;;;;27.20;36.06;96848.16;5034400;28;20022;-26
2023/06/22 03:46:05;;;;;;;8.52;3.45;;;;;;;27.24;36.10;96848.59;5046768;28;20047;-26
2023/06/22 03:48:31;;;;;;;4.93;3.30;;;;;;;27.07;35.80;96851.63;5035287;28;20387;-26
2023/06/22 03:50:56;;;;;;;6.78;3.13;;;;;;;27.20;36.04;96851.69;5034550;28;20021;-26
2023/06/22 03:53:22;;;;;;;7.57;3.47;;;;;;;27.17;35.54;96847.19;5034601;28;20026;-26
2023/06/22 03:55:51;;;;;;;4.65;3.40;;;;;;;27.23;35.58;96850.63;5045300;28;20025;-27
2023/06/22 03:58:18;;;;;;;3.13;2.67;;;;;;;27.04;35.65;96849.91;5034417;28;20021;-26
2023/06/22 04:00:53;;;;;;;5.13;3.17;;;;;;;27.31;35.47;96850.78;5034368;28;20025;-26
2023/06/22 04:03:19;;;;;;;3.78;2.95;;;;;;;27.14;35.72;96851.78;5033947;28;20029;-27
2023/06/22 04:05:45;;;;;;;3.47;3.00;;;;;;;27.26;35.49;96854.41;5034202;28;20116;-28
2023/06/22 04:08:12;;;;;;;4.55;2.83;;;;;;;27.24;35.29;96852.13;5034410;28;20028;-26
2023/06/22 04:10:37;;;;;;;6.07;3.38;;;;;;;27.22;35.66;96848.38;5033978;28;20079;-26
2023/06/22 04:13:03;;;;;;;5.38;3.15;;;;;;;27.21;34.93;96846.88;5041280;28;20021;-26
2023/06/22 04:15:28;;;;;;;5.60;3.42;;;;;;;27.04;35.90;96844.31;5034290;28;20025;-26
2023/06/22 04:17:55;;;;;;;4.93;2.90;;;;;;;27.34;34.82;96850.47;5034276;28;20431;-26
2023/06/22 04:20:20;;;;;;;4.05;2.80;;;;;;;27.24;35.35;96841.00;5033600;28;20032;-26
2023/06/22 04:22:46;;;;;;;4.95;2.72;;;;;;;27.43;35.50;96836.16;5033953;28;20029;-26
2023/06/22 04:25:11;;;;;;;4.32;2.75;;;;;;;27.38;35.14;96841.81;5033739;28;20393;-26
2023/06/22 04:27:40;;;;;;;4.68;3.28;;;;;;;27.37;35.15;96843.84;5033650;28;20067;-26
2023/06/22 04:30:06;;;;;;;4.82;3.20;;;;;;;27.40;35.47;96840.00;5033913;28;20031;-26
2023/06/22 04:32:33;;;;;;;4.93;3.30;;;;;;;27.20;34.94;96839.81;5033489;28;20025;-26
2023/06/22 04:35:00;;;;;;;5.22;3.33;;;;;;;27.29;34.67;96837.38;5034001;28;20391;-26
2023/06/22 04:37:25;;;;;;;4.03;3.15;;;;;;;27.24;34.05;96840.25;5033563;28;20099;-26
2023/06/22 04:39:51;;;;;;;5.32;2.75;;;;;;;27.27;34.68;96848.31;5033284;28;20085;-26
2023/06/22 04:42:17;;;;;;;4.72;2.90;;;;;;;27.36;34.64;96847.16;5036315;28;20025;-27
2023/06/22 04:44:42;;;;;;;4.05;3.08;;;;;;;27.22;34.59;96842.78;5033643;28;20024;-26
2023/06/22 04:47:11;;;;;;;3.20;2.72;;;;;;;27.34;34.87;96846.94;5033963;28;20017;-26
2023/06/22 04:49:37;;;;;;;3.75;3.20;;;;;;;27.17;34.60;96842.38;5034943;28;20028;-26
2023/06/22 04:52:07;;;;;;;2.92;2.40;;;;;;;27.35;33.87;96848.44;5038931;28;20021;-26
2023/06/22 04:54:35;;;;;;;3.60;2.92;;;;;;;27.23;34.50;96856.19;5033587;28;20497;-26
2023/06/22 04:57:10;;;;;;;3.88;3.05;;;;;;;27.31;34.47;96856.34;5033368;28;20036;-26
2023/06/22 04:59:38;;;;;;;8.23;3.55;;;;;;;27.28;34.50;96855.38;5046660;28;20391;-26
2023/06/22 05:02:05;;;;;;;7.85;3.97;;;;;;;27.31;34.81;96851.53;5033173;28;20021;-26
2023/06/22 05:04:31;;;;;;;8.07;4.50;;;;;;;27.22;35.39;96851.91;5033315;28;20029;-26
2023/06/22 05:06:57;;;;;;;5.53;3.83;;;;;;;27.13;35.37;96852.28;5035365;28;20017;-26
2023/06/22 05:09:24;;;;;;;7.78;3.42;;;;;;;27.25;35.31;96848.06;5038033;28;20067;-26
2023/06/22 05:11:50;;;;;;;11.80;4.57;;;;;;;27.35;35.17;96857.53;5037408;28;20025;-26
2023/06/22 05:14:16;;;;;;;8.65;3.75;;;;;;;27.24;35.44;96856.94;5037358;28;20025;-26
2023/06/22 05:16:41;;;;;;;7.50;3.83;;;;;;;27.33;35.23;96862.88;5037470;28;20021;-26
2023/06/22 05:19:07;;;;;;;6.32;3.30;;;;;;;27.37;35.18;96868.16;5037297;28;20018;-26
2023/06/22 05:21:32;;;;;;;7.57;3.53;;;;;;;27.42;34.70;96859.72;5037269;28;20025;-26
2023/06/22 05:24:00;;;;;;;6.95;3.20;;;;;;;27.48;35.35;96860.38;5037607;28;20048;-26
2023/06/22 05:26:33;;;;;;;5.32;3.42;;;;;;;27.38;35.07;96869.66;5036946;28;20032;-26
2023/06/22 05:29:00;;;;;;;6.50;2.80;;;;;;;27.52;35.70;96871.97;5037128;28;20094;-26
2023/06/22 05:31:26;;;;;;;5.50;3.30;;;;;;;27.36;35.82;96864.63;5037027;28;20100;-26
2023/06/22 05:33:53;;;;;;;3.42;2.95;;;;;;;27.48;35.66;96865.97;5037391;28;20108;-26
2023/06/22 05:36:25;;;;;;;4.20;3.22;;;;;;;27.51;35.88;96870.47;5037084;28;20040;-26
2023/06/22 05:38:53;;;;;;;5.00;3.20;;;;;;;27.56;35.87;96865.38;5042229;28;20390;-26
2023/06/22 05:41:19;;;;;;;4.50;3.63;;;;;;;27.44;37.52;96864.78;5037739;28;20190;-26
2023/06/22 05:43:44;;;;;;;6.22;3.35;;;;;;;27.64;36.80;96869.06;5036721;28;20104;-26
2023/06/22 05:46:10;;;;;;;3.50;2.95;;;;;;;27.53;37.15;96873.50;5036598;28;20024;-26
2023/06/22 05:48:36;;;;;;;5.10;3.20;;;;;;;27.68;37.26;96872.28;5043024;28;20017;-26
2023/06/22 05:51:01;;;;;;;4.63;3.00;;;;;;;27.56;36.89;96868.16;5037157;28;20029;-27
2023/06/22 05:53:27;;;;;;;4.97;3.47;;;;;;;27.56;36.91;96876.53;5036925;28;20120;-26
2023/06/22 05:55:52;;;;;;;4.05;3.22;;;;;;;27.69;36.05;96871.75;5043886;28;20076;-26
2023/06/22 05:58:18;;;;;;;4.10;3.22;;;;;;;27.74;36.06;96875.72;5041309;28;20030;-26
2023/06/22 06:00:43;;;;;;;5.93;3.63;;;;;;;27.61;35.04;96876.44;5036283;28;20021;-26
2023/06/22 06:03:10;;;;;;;3.38;2.90;;;;;;;27.59;35.83;96869.88;5036526;28;20021;-27
2023/06/22 06:05:37;;;;;;;4.15;3.00;;;;;;;27.66;36.00;96874.84;5036806;28;20434;-26
2023/06/22 06:08:07;;;;;;;4.20;2.70;;;;;;;27.66;35.80;96869.28;5039410;28;20044;-26
2023/06/22 06:10:33;;;;;;;5.35;3.50;;;;;;;27.65;35.96;96878.91;5040052;28;20017;-26
2023/06/22 06:13:02;;;;;;;5.28;3.17;;;;;;;27.49;36.26;96875.81;5036247;28;20485;-27
2023/06/22 06:15:27;;;;;;;4.47;2.90;;;;;;;27.63;36.33;96876.66;5036145;28;20025;-26
2023/06/22 06:17:53;;;;;;;4.50;3.50;;;;;;;27.61;36.35;96884.03;5034859;28;20030;-26
2023/06/22 06:20:23;;;;;;;4.78;3.03;;;;;;;27.58;37.19;96879.50;5035863;28;20033;-26
2023/06/22 06:22:49;;;;;;;5.82;3.10;;;;;;;27.63;37.62;96887.06;5036185;28;20029;-27
2023/06/22 06:25:19;;;;;;;4.05;3.22;;;;;;;27.68;37.39;96894.59;5036538;28;20534;-26
2023/06/22 06:27:49;;;;;;;5.47;3.10;;;;;;;27.54;38.12;96891.72;5035907;28;20026;-26
2023/06/22 06:30:16;;;;;;;4.75;3.22;;;;;;;27.72;37.96;96889.44;5035826;28;20032;-27
2023/06/22 06:32:45;;;;;;;5.32;3.08;;;;;;;27.80;37.86;96893.13;5035883;28;20026;-26
2023/06/22 06:35:11;;;;;;;5.53;3.15;;;;;;;27.66;38.18;96889.53;5035752;28;20021;-26
2023/06/22 06:37:39;;;;;;;5.32;3.00;;;;;;;27.81;37.73;96895.38;5035858;28;20018;-28
2023/06/22 06:40:10;;;;;;;7.47;3.20;;;;;;;27.75;37.73;96893.94;5035371;28;20050;-26
2023/06/22 06:42:37;;;;;;;3.70;2.97;;;;;;;27.84;37.97;96897.09;5043047;28;20104;-26
2023/06/22 06:45:04;;;;;;;5.50;3.38;;;;;;;27.80;38.20;96901.47;5035692;28;20022;-26
2023/06/22 06:47:30;;;;;;;4.03;3.17;;;;;;;27.78;38.56;96899.22;5035499;28;20079;-26
2023/06/22 06:49:55;;;;;;;6.70;3.30;;;;;;;27.78;38.46;96898.47;5036033;28;20014;-26
2023/06/22 06:52:21;;;;;;;6.72;3.88;;;;;;;27.76;38.70;96901.78;5037565;28;20066;-26
2023/06/22 06:54:46;;;;;;;7.50;3.50;;;;;;;27.88;38.67;96905.16;5043116;28;20460;-26
2023/06/22 06:57:13;;;;;;;4.82;3.33;;;;;;;27.86;38.64;96904.91;5035973;28;20532;-25
2023/06/22 06:59:39;;;;;;;4.25;3.17;;;;;;;27.74;39.12;96914.75;5035225;28;20029;-26
2023/06/22 07:02:04;;;;;;;5.20;3.35;;;;;;;27.76;38.88;96914.97;5035620;28;20116;-27
2023/06/22 07:04:30;;;;;;;3.80;3.20;;;;;;;27.54;39.25;96914.00;5035188;28;20096;-26
2023/06/22 07:06:55;;;;;;;6.10;3.50;;;;;;;27.69;38.75;96918.38;5035055;28;20387;-26
2023/06/22 07:09:21;;;;;;;7.72;3.35;;;;;;;27.78;39.06;96915.94;5035232;28;20064;-26
2023/06/22 07:11:46;;;;;;;7.68;3.42;;;;;;;27.74;38.67;96915.50;5042196;28;20048;-26
2023/06/22 07:14:12;;;;;;;7.93;3.25;;;;;;;27.80;38.33;96916.19;5035255;28;20021;-26
2023/06/22 07:16:37;;;;;;;6.95;3.20;;;;;;;27.82;38.23;96915.63;5035001;28;20060;-27
2023/06/22 07:19:03;;;;;;;4.95;2.97;;;;;;;27.67;38.51;96920.94;5035104;28;20025;-26
2023/06/22 07:21:28;;;;;;;7.50;3.70;;;;;;;27.62;38.17;96918.97;5034961;28;20112;-27
2023/06/22 07:23:54;;;;;;;4.32;2.80;;;;;;;27.74;37.67;96912.72;5034705;28;20033;-26
2023/06/22 07:26:20;;;;;;;5.18;3.00;;;;;;;27.62;37.16;96919.72;5035067;28;20032;-26
2023/06/22 07:28:46;;;;;;;5.50;3.25;;;;;;;27.70;37.27;96914.28;5034577;28;20025;-27
2023/06/22 07:31:11;;;;;;;8.68;3.35;;;;;;;27.67;37.14;96918.91;5034893;28;20022;-26
2023/06/22 07:33:36;;;;;;;7.30;3.17;;;;;;;27.70;36.76;96914.28;5034959;28;20021;-26
2023/06/22 07:36:07;;;;;;;4.38;3.17;;;;;;;27.65;37.20;96906.78;5034480;28;20029;-26
2023/06/22 07:38:32;;;;;;;8.32;3.25;;;;;;;27.63;37.53;96909.34;5041808;28;20382;-26
2023/06/22 07:40:58;;;;;;;6.30;3.88;;;;;;;27.71;38.25;96905.41;5034219;28;20049;-27
2023/06/22 07:43:23;;;;;;;6.32;3.40;;;;;;;27.74;38.24;96903.59;5040747;28;20020;-26
2023/06/22 07:45:53;;;;;;;5.15;3.03;;;;;;;27.74;38.61;96909.91;5035077;28;20025;-27
2023/06/22 07:48:22;;;;;;;8.63;3.45;;;;;;;27.69;38.74;96908.00;5034370;28;20026;-26
2023/06/22 07:50:47;;;;;;;7.53;3.67;;;;;;;27.58;39.06;96901.81;5033720;28;20029;-26
2023/06/22 07:53:13;;;;;;;4.97;3.55;;;;;;;27.70;38.50;96903.13;5040669;28;20541;-26
2023/06/22 07:55:38;;;;;;;7.50;3.20;;;;;;;27.65;38.33;96904.00;5034085;28;20032;-26
2023/06/22 07:58:04;;;;;;;4.78;3.10;;;;;;;27.68;38.09;96894.59;5034288;28;20026;-26
2023/06/22 08:00:29;;;;;;;7.72;3.58;;;;;;;27.73;37.53;96902.09;5034487;28;20029;-26
2023/06/22 08:02:55;;;;;;;5.72;3.15;;;;;;;27.68;38.10;96900.16;5034417;28;20079;-26
2023/06/22 08:05:20;;;;;;;5.65;3.22;;;;;;;27.67;37.09;96898.66;5034084;28;20017;-26
2023/06/22 08:07:46;;;;;;;5.20;3.45;;;;;;;27.71;37.31;96896.28;5034229;28;20025;-26
2023/06/22 08:10:12;;;;;;;5.05;3.20;;;;;;;27.78;37.14;96896.44;5034041;28;20079;-26
2023/06/22 08:12:38;;;;;;;3.80;3.15;;;;;;;27.68;37.05;96897.38;5034052;28;20026;-26
2023/06/22 08:15:05;;;;;;;5.70;3.50;;;;;;;27.74;36.93;96895.22;5036143;28;20497;-26
2023/06/22 08:17:31;;;;;;;6.22;3.45;;;;;;;27.74;37.30;96900.81;5038866;28;20033;-26
2023/06/22 08:19:56;;;;;;;10.82;3.58;;;;;;;27.77;36.35;96891.38;5040886;28;20059;-26
2023/06/22 08:22:22;;;;;;;6.43;4.55;;;;;;;27.76;36.69;96895.47;5033586;28;20057;-26
2023/06/22 08:24:48;;;;;;;6.95;3.42;;;;;;;27.85;36.90;96901.38;5033763;28;20246;-26
2023/06/22 08:27:14;;;;;;;5.32;3.38;;;;;;;27.79;37.56;96897.19;5033928;28;20082;-26
2023/06/22 08:29:42;;;;;;;6.80;3.40;;;;;;;27.89;37.22;96907.41;5033610;28;20530;-26
2023/06/22 08:32:11;;;;;;;6.15;3.47;;;;;;;27.87;37.53;96900.84;5041113;28;20024;-26
2023/06/22 08:34:41;;;;;;;7.90;3.60;;;;;;;27.85;37.62;96903.41;5033933;28;20022;-26
2023/06/22 08:37:08;;;;;;;6.88;3.90;;;;;;;27.87;37.59;96909.22;5033917;28;20039;-28
2023/06/22 08:39:33;;;;;;;5.00;3.53;;;;;;;27.85;37.09;96903.41;5033204;28;20017;-26
2023/06/22 08:41:59;;;;;;;4.90;3.40;;;;;;;27.93;36.43;96898.00;5033166;28;20375;-26
2023/06/22 08:44:25;;;;;;;5.13;3.35;;;;;;;27.87;36.37;96898.06;5033715;28;20361;-26
2023/06/22 08:46:50;;;;;;;7.07;3.70;;;;;;;27.97;36.55;96890.03;5033414;28;20009;-26
2023/06/22 08:49:16;;;;;;;6.90;3.47;;;;;;;27.92;37.03;96893.69;5033729;28;20492;-26
2023/06/22 08:51:41;;;;;;;7.15;3.67;;;;;;;27.94;36.98;96883.53;5034638;28;20021;-27
2023/06/22 08:54:07;;;;;;;7.53;3.38;;;;;;;28.00;37.68;96881.38;5033492;28;20098;-26
2023/06/22 08:56:32;;;;;;;6.43;3.30;;;;;;;27.93;38.37;96886.84;5033239;28;20028;-26
2023/06/22 08:58:58;;;;;;;4.68;3.58;;;;;;;27.98;38.06;96885.97;5033196;28;20033;-26
2023/06/22 09:01:23;;;;;;;6.28;3.50;;;;;;;28.05;38.52;96888.91;5035131;28;20017;-26
2023/06/22 09:03:54;;;;;;;6.60;3.70;;;;;;;28.05;38.47;96888.91;5033463;28;20084;-26
2023/06/22 09:06:21;;;;;;;3.80;3.08;;;;;;;28.06;38.47;96887.63;5033272;28;20079;-26
2023/06/22 09:08:47;;;;;;;5.32;3.17;;;;;;;28.14;38.46;96885.69;5033787;28;20513;-26
2023/06/22 09:11:13;;;;;;;4.50;3.00;;;;;;;28.16;37.97;96883.13;5040987;28;20052;-26
2023/06/22 09:13:38;;;;;;;10.18;3.35;;;;;;;28.20;38.04;96885.63;5037942;28;20091;-26
2023/06/22 09:16:04;;;;;;;5.90;2.90;;;;;;;28.10;38.14;96888.03;5032970;28;20056;-27
2023/06/22 09:18:29;;;;;;;9.43;3.88;;;;;;;28.22;38.10;96897.75;5032928;28;20022;-26
2023/06/22 09:20:56;;;;;;;6.90;3.78;;;;;;;28.14;38.43;96901.69;5033428;28;20433;-26
2023/06/22 09:23:21;;;;;;;5.43;3.50;;;;;;;28.18;38.04;96893.78;5035093;28;20021;-27
2023/06/22 09:25:47;;;;;;;4.60;3.30;;;;;;;28.27;38.00;96889.81;5036850;28;20028;-26
2023/06/22 09:28:13;;;;;;;7.00;2.83;;;;;;;28.24;37.79;96888.84;5032985;28;20025;-27
2023/06/22 09:30:39;;;;;;;5.95;3.05;;;;;;;28.30;37.95;96889.50;5032973;28;20021;-27
2023/06/22 09:33:04;;;;;;;9.05;2.78;;;;;;;28.28;37.92;96891.34;5032943;28;20437;-27
2023/06/22 09:35:30;;;;;;;4.80;3.25;;;;;;;28.19;38.04;96884.88;5032962;28;20426;-26
2023/06/22 09:37:55;;;;;;;6.93;3.35;;;;;;;28.24;37.85;96888.84;5040305;28;20080;-26
2023/06/22 09:40:21;;;;;;;5.00;2.80;;;;;;;28.21;37.48;96885.09;5032737;28;20068;-26
2023/06/22 09:43:39;;;;;;;6.32;3.00;;;;;;;28.33;37.32;96882.84;5041551;28;20067;-26
2023/06/22 09:46:04;;;;;;;5.35;2.97;;;;;;;28.31;37.39;96879.88;5032755;28;20367;-26
2023/06/22 09:48:30;;;;;;;4.45;3.00;;;;;;;28.39;36.79;96882.75;5033102;28;20032;-27
2023/06/22 09:50:56;;;;;;;6.18;2.80;;;;;;;28.37;36.50;96868.59;5039712;28;20088;-26
2023/06/22 09:53:22;;;;;;;4.15;2.95;;;;;;;28.34;36.26;96880.81;5035144;28;20024;-26
2023/06/22 09:55:47;;;;;;;3.72;2.60;;;;;;;28.37;36.20;96879.75;5036495;28;20095;-26
2023/06/22 09:58:13;;;;;;;6.10;2.90;;;;;;;28.39;36.13;96877.94;5036293;28;20024;-26
2023/06/22 10:00:41;;;;;;;5.90;2.88;;;;;;;28.47;36.48;96873.22;5036474;28;20049;-26
2023/06/22 10:03:07;;;;;;;5.43;2.72;;;;;;;28.48;36.01;96873.97;5036257;28;20024;-26
2023/06/22 10:05:32;;;;;;;6.07;2.88;;;;;;;28.50;36.32;96876.97;5036217;28;20387;-26
2023/06/22 10:07:58;;;;;;;4.32;2.63;;;;;;;28.51;35.77;96878.47;5036784;28;20017;-26
2023/06/22 10:10:23;;;;;;;7.60;2.67;;;;;;;28.48;35.97;96874.72;5036584;28;20017;-27
2023/06/22 10:12:56;;;;;;;5.45;2.50;;;;;;;28.51;36.55;96879.22;5036181;28;20060;-26
2023/06/22 10:15:21;;;;;;;6.15;2.85;;;;;;;28.56;36.41;96881.13;5036391;28;20017;-26
2023/06/22 10:17:47;;;;;;;3.60;2.63;;;;;;;28.50;36.64;96874.19;5036169;28;20033;-26
2023/06/22 10:20:13;;;;;;;7.45;2.83;;;;;;;28.57;36.97;96877.06;5035934;28;20017;-26
2023/06/22 10:22:43;;;;;;;4.65;2.92;;;;;;;28.53;37.64;96882.22;5036214;28;20032;-28
2023/06/22 10:25:10;;;;;;;5.57;3.10;;;;;;;28.55;38.01;96876.13;5036547;28;20034;-27
2023/06/22 10:27:35;;;;;;;7.10;3.15;;;;;;;28.55;38.32;96882.44;5036177;28;20021;-26
2023/06/22 10:30:01;;;;;;;6.80;3.40;;;;;;;28.76;39.07;96876.97;5036132;28;20079;-27
2023/06/22 10:32:28;;;;;;;5.82;2.95;;;;;;;28.72;39.33;96882.09;5035727;28;20037;-26
2023/06/22 10:34:54;;;;;;;5.50;3.45;;;;;;;28.66;39.23;96878.69;5035692;28;20060;-26
2023/06/22 10:37:19;;;;;;;12.48;3.53;;;;;;;28.69;38.69;96872.00;5036057;28;20117;-26
2023/06/22 10:39:45;;;;;;;4.50;3.10;;;;;;;28.82;38.64;96874.81;5042450;28;20360;-27
2023/06/22 10:42:10;;;;;;;6.38;3.33;;;;;;;28.86;37.52;96880.09;5036075;28;20101;-26
2023/06/22 10:44:36;;;;;;;6.35;3.70;;;;;;;28.84;37.17;96872.25;5042884;28;20993;-26
2023/06/22 10:47:01;;;;;;;6.72;3.63;;;;;;;28.82;36.21;96879.66;5035653;28;20482;-27
2023/06/22 10:49:27;;;;;;;9.32;3.55;;;;;;;28.83;35.75;96881.91;5035104;28;20017;-26
2023/06/22 10:51:52;;;;;;;6.85;3.25;;;;;;;28.81;36.21;96870.53;5035483;28;20341;-26
2023/06/22 10:54:19;;;;;;;9.07;3.60;;;;;;;28.88;36.89;96872.69;5035786;28;20363;-26
2023/06/22 10:56:44;;;;;;;6.95;3.22;;;;;;;28.94;37.58;96880.94;5042233;28;20031;-26
2023/06/22 10:59:10;;;;;;;5.72;3.10;;;;;;;28.87;37.28;96876.75;5035857;28;20021;-26
2023/06/22 11:01:36;;;;;;;8.25;3.17;;;;;;;28.83;37.12;96876.31;5035201;28;20028;-27
2023/06/22 11:04:02;;;;;;;5.93;2.95;;;;;;;28.95;37.33;96883.19;5034423;28;20028;-26
2023/06/22 11:06:27;;;;;;;3.75;3.08;;;;;;;28.93;37.36;96874.59;5035219;28;20029;-27
2023/06/22 11:08:53;;;;;;;5.80;2.80;;;;;;;28.89;37.22;96881.81;5047310;28;20666;-27
2023/06/22 11:11:18;;;;;;;5.05;3.15;;;;;;;28.92;37.12;96877.94;5035175;28;20379;-28
2023/06/22 11:13:44;;;;;;;6.57;2.95;;;;;;;28.93;37.69;96885.03;5035322;28;20030;-26
2023/06/22 11:16:10;;;;;;;9.57;3.42;;;;;;;28.97;37.63;96884.69;5035158;28;20068;-27
2023/06/22 11:18:35;;;;;;;8.55;3.15;;;;;;;29.01;37.73;96874.72;5035013;28;20021;-26
2023/06/22 11:21:01;;;;;;;9.43;3.38;;;;;;;29.02;37.62;96875.47;5034966;28;20029;-26
2023/06/22 11:23:27;;;;;;;5.95;3.08;;;;;;;29.03;36.93;96872.13;5034979;28;20021;-26
2023/06/22 11:25:53;;;;;;;7.50;2.80;;;;;;;29.08;36.51;96867.69;5034664;28;20173;-26
2023/06/22 11:28:19;;;;;;;6.70;3.53;;;;;;;29.03;37.00;96871.38;5035236;28;20446;-26
2023/06/22 11:30:44;;;;;;;8.98;3.10;;;;;;;28.98;36.91;96869.44;5034850;28;20032;-27
2023/06/22 11:33:10;;;;;;;7.80;3.13;;;;;;;29.06;37.21;96864.69;5041389;28;20078;-26